sensor_id;sensor_type;location;lat;lon;timestamp;P1;durP1;ratioP1;P2;durP2;ratioP2
48993;SDS011;34804;49.214;12.276;2022-10-16T00:01:32;5.10;;;2.70;;
48993;SDS011;34804;49.214;12.276;2022-10-16T00:03:59;5.28;;;2.85;;
48993;SDS011;34804;49.214;12.276;2022-10-16T00:06:27;5.72;;;3.30;;
48993;SDS011;34804;49.214;12.276;2022-10-16T00:08:55;5.32;;;2.90;;
48993;SDS011;34804;49.214;12.276;2022-10-16T00:11:27;7.63;;;3.90;;
48993;SDS011;34804;49.214;12.276;2022-10-16T00:13:56;9.85;;;3.60;;
48993;SDS011;34804;49.214;12.276;2022-10-16T00:16:25;7.82;;;3.90;;
48993;SDS011;34804;49.214;12.276;2022-10-16T00:18:52;5.93;;;2.95;;
48993;SDS011;34804;49.214;12.276;2022-10-16T00:21:20;6.50;;;3.13;;
48993;SDS011;34804;49.214;12.276;2022-10-16T00:23:50;5.50;;;2.97;;
48993;SDS011;34804;49.214;12.276;2022-10-16T00:26:18;4.70;;;2.65;;
48993;SDS011;34804;49.214;12.276;2022-10-16T00:28:46;4.95;;;2.70;;
48993;SDS011;34804;49.214;12.276;2022-10-16T00:31:14;7.50;;;2.85;;
48993;SDS011;34804;49.214;12.276;2022-10-16T00:33:42;6.50;;;3.30;;
48993;SDS011;34804;49.214;12.276;2022-10-16T00:36:10;5.97;;;3.08;;
48993;SDS011;34804;49.214;12.276;2022-10-16T00:38:38;5.40;;;2.80;;
48993;SDS011;34804;49.214;12.276;2022-10-16T00:41:06;5.38;;;3.03;;
48993;SDS011;34804;49.214;12.276;2022-10-16T00:46:15;4.95;;;2.60;;
48993;SDS011;34804;49.214;12.276;2022-10-16T00:49:17;4.88;;;2.70;;
48993;SDS011;34804;49.214;12.276;2022-10-16T00:51:47;5.18;;;2.80;;
48993;SDS011;34804;49.214;12.276;2022-10-16T00:54:17;5.47;;;2.60;;
48993;SDS011;34804;49.214;12.276;2022-10-16T00:56:48;7.17;;;3.10;;
48993;SDS011;34804;49.214;12.276;2022-10-16T00:59:24;5.97;;;2.85;;
48993;SDS011;34804;49.214;12.276;2022-10-16T01:01:54;6.47;;;2.58;;
48993;SDS011;34804;49.214;12.276;2022-10-16T01:04:22;6.75;;;2.53;;
48993;SDS011;34804;49.214;12.276;2022-10-16T01:13:11;5.60;;;2.53;;
48993;SDS011;34804;49.214;12.276;2022-10-16T01:16:05;7.50;;;3.00;;
48993;SDS011;34804;49.214;12.276;2022-10-16T01:21:34;5.70;;;3.58;;
48993;SDS011;34804;49.214;12.276;2022-10-16T01:29:26;7.50;;;3.65;;
48993;SDS011;34804;49.214;12.276;2022-10-16T01:32:33;7.20;;;3.78;;
48993;SDS011;34804;49.214;12.276;2022-10-16T01:34:58;7.30;;;3.72;;
48993;SDS011;34804;49.214;12.276;2022-10-16T01:37:35;9.45;;;3.70;;
48993;SDS011;34804;49.214;12.276;2022-10-16T01:40:10;8.10;;;4.00;;
48993;SDS011;34804;49.214;12.276;2022-10-16T01:42:41;7.20;;;2.88;;
48993;SDS011;34804;49.214;12.276;2022-10-16T01:45:13;6.78;;;3.13;;
48993;SDS011;34804;49.214;12.276;2022-10-16T01:47:44;7.55;;;2.80;;
48993;SDS011;34804;49.214;12.276;2022-10-16T01:50:13;7.25;;;2.92;;
48993;SDS011;34804;49.214;12.276;2022-10-16T01:52:43;5.25;;;2.85;;
48993;SDS011;34804;49.214;12.276;2022-10-16T01:55:12;5.45;;;2.80;;
48993;SDS011;34804;49.214;12.276;2022-10-16T01:57:44;4.63;;;2.80;;
48993;SDS011;34804;49.214;12.276;2022-10-16T02:00:15;7.10;;;2.78;;
48993;SDS011;34804;49.214;12.276;2022-10-16T02:02:46;6.63;;;2.80;;
48993;SDS011;34804;49.214;12.276;2022-10-16T02:07:46;4.75;;;2.67;;
48993;SDS011;34804;49.214;12.276;2022-10-16T02:10:14;6.70;;;2.72;;
48993;SDS011;34804;49.214;12.276;2022-10-16T02:12:43;5.18;;;2.60;;
48993;SDS011;34804;49.214;12.276;2022-10-16T02:15:15;6.00;;;2.70;;
48993;SDS011;34804;49.214;12.276;2022-10-16T02:17:42;8.10;;;3.08;;
48993;SDS011;34804;49.214;12.276;2022-10-16T02:20:09;6.60;;;2.63;;
48993;SDS011;34804;49.214;12.276;2022-10-16T02:22:41;4.40;;;2.58;;
48993;SDS011;34804;49.214;12.276;2022-10-16T02:25:15;6.13;;;2.90;;
48993;SDS011;34804;49.214;12.276;2022-10-16T02:27:51;6.38;;;2.85;;
48993;SDS011;34804;49.214;12.276;2022-10-16T02:32:56;9.13;;;2.65;;
48993;SDS011;34804;49.214;12.276;2022-10-16T02:35:25;4.35;;;2.35;;
48993;SDS011;34804;49.214;12.276;2022-10-16T02:37:53;5.68;;;2.55;;
48993;SDS011;34804;49.214;12.276;2022-10-16T02:40:21;6.93;;;2.88;;
48993;SDS011;34804;49.214;12.276;2022-10-16T02:42:51;7.32;;;3.03;;
48993;SDS011;34804;49.214;12.276;2022-10-16T02:45:19;5.57;;;2.75;;
48993;SDS011;34804;49.214;12.276;2022-10-16T02:47:47;5.40;;;2.92;;
48993;SDS011;34804;49.214;12.276;2022-10-16T02:50:14;5.65;;;2.60;;
48993;SDS011;34804;49.214;12.276;2022-10-16T02:52:41;7.47;;;2.80;;
48993;SDS011;34804;49.214;12.276;2022-10-16T02:55:08;6.93;;;2.88;;
48993;SDS011;34804;49.214;12.276;2022-10-16T02:57:35;5.25;;;2.55;;
48993;SDS011;34804;49.214;12.276;2022-10-16T03:00:04;6.18;;;2.22;;
48993;SDS011;34804;49.214;12.276;2022-10-16T03:02:31;6.43;;;2.60;;
48993;SDS011;34804;49.214;12.276;2022-10-16T03:04:58;6.13;;;2.45;;
48993;SDS011;34804;49.214;12.276;2022-10-16T03:07:25;5.15;;;2.45;;
48993;SDS011;34804;49.214;12.276;2022-10-16T03:09:52;5.25;;;2.60;;
48993;SDS011;34804;49.214;12.276;2022-10-16T03:12:20;6.63;;;2.80;;
48993;SDS011;34804;49.214;12.276;2022-10-16T03:14:47;5.47;;;2.50;;
48993;SDS011;34804;49.214;12.276;2022-10-16T03:17:14;4.72;;;2.78;;
48993;SDS011;34804;49.214;12.276;2022-10-16T03:19:44;5.15;;;2.55;;
48993;SDS011;34804;49.214;12.276;2022-10-16T03:22:11;5.10;;;2.85;;
48993;SDS011;34804;49.214;12.276;2022-10-16T03:24:37;5.47;;;2.50;;
48993;SDS011;34804;49.214;12.276;2022-10-16T03:27:04;5.57;;;2.50;;
48993;SDS011;34804;49.214;12.276;2022-10-16T03:29:32;7.90;;;2.40;;
48993;SDS011;34804;49.214;12.276;2022-10-16T03:31:59;6.72;;;2.60;;
48993;SDS011;34804;49.214;12.276;2022-10-16T03:34:27;6.68;;;2.60;;
48993;SDS011;34804;49.214;12.276;2022-10-16T03:36:54;5.25;;;2.75;;
48993;SDS011;34804;49.214;12.276;2022-10-16T03:39:20;4.93;;;2.60;;
48993;SDS011;34804;49.214;12.276;2022-10-16T03:41:47;9.00;;;2.55;;
48993;SDS011;34804;49.214;12.276;2022-10-16T03:44:14;8.00;;;2.80;;
48993;SDS011;34804;49.214;12.276;2022-10-16T03:46:41;5.00;;;2.45;;
48993;SDS011;34804;49.214;12.276;2022-10-16T03:49:08;5.28;;;2.60;;
48993;SDS011;34804;49.214;12.276;2022-10-16T03:51:35;6.20;;;2.78;;
48993;SDS011;34804;49.214;12.276;2022-10-16T03:54:02;6.45;;;2.83;;
48993;SDS011;34804;49.214;12.276;2022-10-16T03:56:29;4.85;;;2.83;;
48993;SDS011;34804;49.214;12.276;2022-10-16T03:58:55;5.32;;;2.83;;
48993;SDS011;34804;49.214;12.276;2022-10-16T04:01:22;10.13;;;2.58;;
48993;SDS011;34804;49.214;12.276;2022-10-16T04:03:49;6.65;;;2.60;;
48993;SDS011;34804;49.214;12.276;2022-10-16T04:06:16;5.60;;;2.30;;
48993;SDS011;34804;49.214;12.276;2022-10-16T04:08:43;4.32;;;2.50;;
48993;SDS011;34804;49.214;12.276;2022-10-16T04:11:10;7.60;;;2.70;;
48993;SDS011;34804;49.214;12.276;2022-10-16T04:13:37;6.35;;;2.60;;
48993;SDS011;34804;49.214;12.276;2022-10-16T04:16:04;6.28;;;2.92;;
48993;SDS011;34804;49.214;12.276;2022-10-16T04:18:31;7.68;;;2.80;;
48993;SDS011;34804;49.214;12.276;2022-10-16T04:21:01;5.40;;;2.67;;
48993;SDS011;34804;49.214;12.276;2022-10-16T04:23:29;5.32;;;2.78;;
48993;SDS011;34804;49.214;12.276;2022-10-16T04:25:56;6.72;;;2.97;;
48993;SDS011;34804;49.214;12.276;2022-10-16T04:28:23;5.18;;;2.65;;
48993;SDS011;34804;49.214;12.276;2022-10-16T04:30:50;4.55;;;2.47;;
48993;SDS011;34804;49.214;12.276;2022-10-16T04:33:17;6.40;;;2.47;;
48993;SDS011;34804;49.214;12.276;2022-10-16T04:35:44;6.80;;;2.35;;
48993;SDS011;34804;49.214;12.276;2022-10-16T04:38:11;6.60;;;3.00;;
48993;SDS011;34804;49.214;12.276;2022-10-16T04:40:37;7.18;;;2.67;;
48993;SDS011;34804;49.214;12.276;2022-10-16T04:43:04;6.60;;;2.72;;
48993;SDS011;34804;49.214;12.276;2022-10-16T04:45:31;5.38;;;2.53;;
48993;SDS011;34804;49.214;12.276;2022-10-16T04:47:58;6.82;;;2.70;;
48993;SDS011;34804;49.214;12.276;2022-10-16T04:50:26;5.57;;;2.80;;
48993;SDS011;34804;49.214;12.276;2022-10-16T04:52:53;8.50;;;3.35;;
48993;SDS011;34804;49.214;12.276;2022-10-16T04:55:19;6.57;;;2.70;;
48993;SDS011;34804;49.214;12.276;2022-10-16T04:57:46;9.38;;;3.10;;
48993;SDS011;34804;49.214;12.276;2022-10-16T05:00:13;5.60;;;2.90;;
48993;SDS011;34804;49.214;12.276;2022-10-16T05:02:40;8.50;;;2.80;;
48993;SDS011;34804;49.214;12.276;2022-10-16T05:05:07;10.00;;;2.60;;
48993;SDS011;34804;49.214;12.276;2022-10-16T05:07:34;7.43;;;2.75;;
48993;SDS011;34804;49.214;12.276;2022-10-16T05:10:01;9.45;;;2.63;;
48993;SDS011;34804;49.214;12.276;2022-10-16T05:12:28;10.20;;;3.53;;
48993;SDS011;34804;49.214;12.276;2022-10-16T05:14:55;9.98;;;3.42;;
48993;SDS011;34804;49.214;12.276;2022-10-16T05:17:25;5.20;;;2.92;;
48993;SDS011;34804;49.214;12.276;2022-10-16T05:19:52;7.57;;;3.22;;
48993;SDS011;34804;49.214;12.276;2022-10-16T05:22:19;8.55;;;2.80;;
48993;SDS011;34804;49.214;12.276;2022-10-16T05:24:46;7.15;;;3.40;;
48993;SDS011;34804;49.214;12.276;2022-10-16T05:27:13;6.40;;;2.80;;
48993;SDS011;34804;49.214;12.276;2022-10-16T05:29:45;4.75;;;2.80;;
48993;SDS011;34804;49.214;12.276;2022-10-16T05:32:16;5.05;;;2.35;;
48993;SDS011;34804;49.214;12.276;2022-10-16T05:34:44;4.90;;;2.78;;
48993;SDS011;34804;49.214;12.276;2022-10-16T05:37:11;5.72;;;2.70;;
48993;SDS011;34804;49.214;12.276;2022-10-16T05:39:38;4.93;;;2.58;;
48993;SDS011;34804;49.214;12.276;2022-10-16T05:42:05;4.50;;;2.40;;
48993;SDS011;34804;49.214;12.276;2022-10-16T05:44:32;6.43;;;2.80;;
48993;SDS011;34804;49.214;12.276;2022-10-16T05:47:04;5.60;;;2.70;;
48993;SDS011;34804;49.214;12.276;2022-10-16T05:49:31;5.95;;;2.50;;
48993;SDS011;34804;49.214;12.276;2022-10-16T05:51:57;5.82;;;2.30;;
48993;SDS011;34804;49.214;12.276;2022-10-16T05:54:24;6.38;;;2.42;;
48993;SDS011;34804;49.214;12.276;2022-10-16T05:56:51;9.05;;;2.40;;
48993;SDS011;34804;49.214;12.276;2022-10-16T05:59:18;5.53;;;2.13;;
48993;SDS011;34804;49.214;12.276;2022-10-16T06:01:44;4.25;;;2.20;;
48993;SDS011;34804;49.214;12.276;2022-10-16T06:04:11;4.45;;;2.13;;
48993;SDS011;34804;49.214;12.276;2022-10-16T06:06:38;4.00;;;2.00;;
48993;SDS011;34804;49.214;12.276;2022-10-16T06:09:05;6.38;;;2.20;;
48993;SDS011;34804;49.214;12.276;2022-10-16T06:11:32;7.93;;;3.85;;
48993;SDS011;34804;49.214;12.276;2022-10-16T06:14:01;7.47;;;4.00;;
48993;SDS011;34804;49.214;12.276;2022-10-16T06:16:33;14.80;;;9.93;;
48993;SDS011;34804;49.214;12.276;2022-10-16T06:19:00;10.45;;;6.70;;
48993;SDS011;34804;49.214;12.276;2022-10-16T06:21:28;8.90;;;3.47;;
48993;SDS011;34804;49.214;12.276;2022-10-16T06:23:55;9.52;;;3.72;;
48993;SDS011;34804;49.214;12.276;2022-10-16T06:26:24;5.88;;;3.50;;
48993;SDS011;34804;49.214;12.276;2022-10-16T06:28:56;7.85;;;3.28;;
48993;SDS011;34804;49.214;12.276;2022-10-16T06:31:25;6.45;;;2.75;;
48993;SDS011;34804;49.214;12.276;2022-10-16T06:33:55;7.60;;;2.65;;
48993;SDS011;34804;49.214;12.276;2022-10-16T06:36:23;7.00;;;2.60;;
48993;SDS011;34804;49.214;12.276;2022-10-16T06:38:51;5.63;;;2.95;;
48993;SDS011;34804;49.214;12.276;2022-10-16T06:41:19;8.93;;;2.80;;
48993;SDS011;34804;49.214;12.276;2022-10-16T06:43:47;7.53;;;2.80;;
48993;SDS011;34804;49.214;12.276;2022-10-16T06:46:15;7.75;;;2.95;;
48993;SDS011;34804;49.214;12.276;2022-10-16T06:48:43;7.55;;;3.30;;
48993;SDS011;34804;49.214;12.276;2022-10-16T06:51:14;6.28;;;2.80;;
48993;SDS011;34804;49.214;12.276;2022-10-16T06:53:44;8.85;;;3.30;;
48993;SDS011;34804;49.214;12.276;2022-10-16T06:56:31;6.93;;;3.00;;
48993;SDS011;34804;49.214;12.276;2022-10-16T06:58:59;5.22;;;2.65;;
48993;SDS011;34804;49.214;12.276;2022-10-16T07:01:27;6.50;;;2.70;;
48993;SDS011;34804;49.214;12.276;2022-10-16T07:03:54;4.80;;;2.60;;
48993;SDS011;34804;49.214;12.276;2022-10-16T07:06:21;6.15;;;2.60;;
48993;SDS011;34804;49.214;12.276;2022-10-16T07:08:50;9.00;;;3.30;;
48993;SDS011;34804;49.214;12.276;2022-10-16T07:11:18;10.15;;;2.58;;
48993;SDS011;34804;49.214;12.276;2022-10-16T07:13:47;5.28;;;2.60;;
48993;SDS011;34804;49.214;12.276;2022-10-16T07:16:21;7.00;;;2.50;;
48993;SDS011;34804;49.214;12.276;2022-10-16T07:18:56;6.45;;;2.35;;
48993;SDS011;34804;49.214;12.276;2022-10-16T07:21:26;5.07;;;2.55;;
48993;SDS011;34804;49.214;12.276;2022-10-16T07:23:56;5.65;;;2.40;;
48993;SDS011;34804;49.214;12.276;2022-10-16T07:26:25;4.00;;;2.10;;
48993;SDS011;34804;49.214;12.276;2022-10-16T07:28:53;5.82;;;2.40;;
48993;SDS011;34804;49.214;12.276;2022-10-16T07:31:20;4.15;;;2.45;;
48993;SDS011;34804;49.214;12.276;2022-10-16T07:33:48;6.80;;;2.17;;
48993;SDS011;34804;49.214;12.276;2022-10-16T07:36:16;8.90;;;2.53;;
48993;SDS011;34804;49.214;12.276;2022-10-16T07:38:44;5.95;;;2.50;;
48993;SDS011;34804;49.214;12.276;2022-10-16T07:41:11;5.88;;;2.38;;
48993;SDS011;34804;49.214;12.276;2022-10-16T07:43:46;4.88;;;2.47;;
48993;SDS011;34804;49.214;12.276;2022-10-16T07:46:18;6.03;;;2.17;;
48993;SDS011;34804;49.214;12.276;2022-10-16T07:48:46;4.72;;;2.42;;
48993;SDS011;34804;49.214;12.276;2022-10-16T07:51:15;8.70;;;2.38;;
48993;SDS011;34804;49.214;12.276;2022-10-16T07:53:44;8.85;;;2.10;;
48993;SDS011;34804;49.214;12.276;2022-10-16T07:56:11;6.20;;;2.20;;
48993;SDS011;34804;49.214;12.276;2022-10-16T07:58:38;4.72;;;1.90;;
48993;SDS011;34804;49.214;12.276;2022-10-16T08:01:06;5.82;;;1.80;;
48993;SDS011;34804;49.214;12.276;2022-10-16T08:03:34;5.10;;;2.13;;
48993;SDS011;34804;49.214;12.276;2022-10-16T08:06:02;4.95;;;1.70;;
48993;SDS011;34804;49.214;12.276;2022-10-16T08:08:30;9.57;;;2.38;;
48993;SDS011;34804;49.214;12.276;2022-10-16T08:10:56;5.85;;;2.28;;
48993;SDS011;34804;49.214;12.276;2022-10-16T08:13:23;4.68;;;2.20;;
48993;SDS011;34804;49.214;12.276;2022-10-16T08:15:50;6.15;;;2.10;;
48993;SDS011;34804;49.214;12.276;2022-10-16T08:18:17;4.72;;;2.00;;
48993;SDS011;34804;49.214;12.276;2022-10-16T08:20:44;7.57;;;2.33;;
48993;SDS011;34804;49.214;12.276;2022-10-16T08:23:11;4.00;;;2.03;;
48993;SDS011;34804;49.214;12.276;2022-10-16T08:25:39;4.20;;;1.90;;
48993;SDS011;34804;49.214;12.276;2022-10-16T08:28:08;7.68;;;3.13;;
48993;SDS011;34804;49.214;12.276;2022-10-16T08:30:36;4.18;;;2.00;;
48993;SDS011;34804;49.214;12.276;2022-10-16T08:33:04;8.23;;;2.15;;
48993;SDS011;34804;49.214;12.276;2022-10-16T08:35:32;5.20;;;1.80;;
48993;SDS011;34804;49.214;12.276;2022-10-16T08:37:59;7.15;;;1.80;;
48993;SDS011;34804;49.214;12.276;2022-10-16T08:40:26;4.90;;;1.92;;
48993;SDS011;34804;49.214;12.276;2022-10-16T08:46:01;4.22;;;1.67;;
48993;SDS011;34804;49.214;12.276;2022-10-16T08:51:19;4.10;;;1.52;;
48993;SDS011;34804;49.214;12.276;2022-10-16T08:57:19;4.47;;;1.60;;
48993;SDS011;34804;49.214;12.276;2022-10-16T08:59:50;7.65;;;2.38;;
48993;SDS011;34804;49.214;12.276;2022-10-16T09:02:40;4.95;;;1.90;;
48993;SDS011;34804;49.214;12.276;2022-10-16T09:13:52;6.03;;;2.00;;
48993;SDS011;34804;49.214;12.276;2022-10-16T09:16:33;5.53;;;1.70;;
48993;SDS011;34804;49.214;12.276;2022-10-16T09:21:45;3.80;;;1.80;;
48993;SDS011;34804;49.214;12.276;2022-10-16T09:24:15;5.25;;;1.63;;
48993;SDS011;34804;49.214;12.276;2022-10-16T09:26:54;4.60;;;1.73;;
48993;SDS011;34804;49.214;12.276;2022-10-16T09:29:21;4.72;;;1.80;;
48993;SDS011;34804;49.214;12.276;2022-10-16T09:31:51;5.78;;;1.95;;
48993;SDS011;34804;49.214;12.276;2022-10-16T09:34:30;4.60;;;1.60;;
48993;SDS011;34804;49.214;12.276;2022-10-16T09:37:01;9.15;;;1.75;;
48993;SDS011;34804;49.214;12.276;2022-10-16T09:39:43;4.28;;;1.90;;
48993;SDS011;34804;49.214;12.276;2022-10-16T09:42:15;4.35;;;1.77;;
48993;SDS011;34804;49.214;12.276;2022-10-16T09:45:03;3.20;;;1.55;;
48993;SDS011;34804;49.214;12.276;2022-10-16T09:47:31;6.55;;;1.63;;
48993;SDS011;34804;49.214;12.276;2022-10-16T09:50:03;4.72;;;2.55;;
48993;SDS011;34804;49.214;12.276;2022-10-16T09:52:45;4.53;;;1.73;;
48993;SDS011;34804;49.214;12.276;2022-10-16T09:55:13;5.22;;;1.73;;
48993;SDS011;34804;49.214;12.276;2022-10-16T09:57:48;4.78;;;2.03;;
48993;SDS011;34804;49.214;12.276;2022-10-16T10:00:19;5.45;;;1.75;;
48993;SDS011;34804;49.214;12.276;2022-10-16T10:02:51;3.92;;;1.70;;
48993;SDS011;34804;49.214;12.276;2022-10-16T10:05:27;5.63;;;1.50;;
48993;SDS011;34804;49.214;12.276;2022-10-16T10:07:56;7.88;;;1.80;;
48993;SDS011;34804;49.214;12.276;2022-10-16T10:10:30;3.45;;;1.65;;
48993;SDS011;34804;49.214;12.276;2022-10-16T10:12:58;4.50;;;1.90;;
48993;SDS011;34804;49.214;12.276;2022-10-16T10:15:25;5.25;;;1.55;;
48993;SDS011;34804;49.214;12.276;2022-10-16T10:17:59;3.55;;;1.70;;
48993;SDS011;34804;49.214;12.276;2022-10-16T10:22:56;4.35;;;1.55;;
48993;SDS011;34804;49.214;12.276;2022-10-16T10:28:21;5.00;;;1.67;;
48993;SDS011;34804;49.214;12.276;2022-10-16T10:33:55;3.80;;;1.83;;
48993;SDS011;34804;49.214;12.276;2022-10-16T10:36:35;2.90;;;1.20;;
48993;SDS011;34804;49.214;12.276;2022-10-16T10:39:13;4.03;;;1.58;;
48993;SDS011;34804;49.214;12.276;2022-10-16T10:42:00;3.63;;;1.70;;
48993;SDS011;34804;49.214;12.276;2022-10-16T10:47:53;3.85;;;1.60;;
48993;SDS011;34804;49.214;12.276;2022-10-16T10:50:31;3.58;;;1.60;;
48993;SDS011;34804;49.214;12.276;2022-10-16T10:55:44;6.38;;;1.98;;
48993;SDS011;34804;49.214;12.276;2022-10-16T11:04:04;3.90;;;1.50;;
48993;SDS011;34804;49.214;12.276;2022-10-16T11:06:57;5.07;;;1.58;;
48993;SDS011;34804;49.214;12.276;2022-10-16T11:09:34;4.03;;;1.73;;
48993;SDS011;34804;49.214;12.276;2022-10-16T11:17:30;4.15;;;1.60;;
48993;SDS011;34804;49.214;12.276;2022-10-16T11:20:04;5.07;;;1.60;;
48993;SDS011;34804;49.214;12.276;2022-10-16T11:22:33;3.53;;;1.50;;
48993;SDS011;34804;49.214;12.276;2022-10-16T11:27:55;3.65;;;1.50;;
48993;SDS011;34804;49.214;12.276;2022-10-16T11:30:41;5.53;;;1.60;;
48993;SDS011;34804;49.214;12.276;2022-10-16T11:36:19;3.20;;;1.60;;
48993;SDS011;34804;49.214;12.276;2022-10-16T11:38:43;5.28;;;1.90;;
48993;SDS011;34804;49.214;12.276;2022-10-16T11:41:15;5.68;;;1.58;;
48993;SDS011;34804;49.214;12.276;2022-10-16T11:46:36;4.30;;;1.80;;
48993;SDS011;34804;49.214;12.276;2022-10-16T11:49:26;5.90;;;1.67;;
48993;SDS011;34804;49.214;12.276;2022-10-16T11:52:07;7.82;;;1.50;;
48993;SDS011;34804;49.214;12.276;2022-10-16T11:57:35;3.83;;;1.33;;
48993;SDS011;34804;49.214;12.276;2022-10-16T12:00:09;3.75;;;1.50;;
48993;SDS011;34804;49.214;12.276;2022-10-16T12:02:58;3.78;;;1.67;;
48993;SDS011;34804;49.214;12.276;2022-10-16T12:05:58;4.07;;;1.52;;
48993;SDS011;34804;49.214;12.276;2022-10-16T12:08:29;3.50;;;1.48;;
48993;SDS011;34804;49.214;12.276;2022-10-16T12:11:06;4.10;;;1.55;;
48993;SDS011;34804;49.214;12.276;2022-10-16T12:13:35;6.63;;;1.70;;
48993;SDS011;34804;49.214;12.276;2022-10-16T12:18:48;3.58;;;1.50;;
48993;SDS011;34804;49.214;12.276;2022-10-16T12:21:16;4.68;;;1.48;;
48993;SDS011;34804;49.214;12.276;2022-10-16T12:23:49;5.05;;;1.45;;
48993;SDS011;34804;49.214;12.276;2022-10-16T12:26:33;4.25;;;1.75;;
48993;SDS011;34804;49.214;12.276;2022-10-16T12:31:51;2.72;;;1.35;;
48993;SDS011;34804;49.214;12.276;2022-10-16T12:34:27;4.88;;;1.67;;
48993;SDS011;34804;49.214;12.276;2022-10-16T12:37:07;3.33;;;1.50;;
48993;SDS011;34804;49.214;12.276;2022-10-16T12:39:40;3.22;;;1.42;;
48993;SDS011;34804;49.214;12.276;2022-10-16T12:42:21;6.53;;;1.70;;
48993;SDS011;34804;49.214;12.276;2022-10-16T12:44:56;2.78;;;1.33;;
48993;SDS011;34804;49.214;12.276;2022-10-16T12:47:24;4.57;;;1.40;;
48993;SDS011;34804;49.214;12.276;2022-10-16T12:50:21;3.70;;;1.50;;
48993;SDS011;34804;49.214;12.276;2022-10-16T12:52:52;2.78;;;1.23;;
48993;SDS011;34804;49.214;12.276;2022-10-16T12:55:19;4.00;;;1.40;;
48993;SDS011;34804;49.214;12.276;2022-10-16T13:00:24;3.05;;;1.40;;
48993;SDS011;34804;49.214;12.276;2022-10-16T13:06:02;8.20;;;1.73;;
48993;SDS011;34804;49.214;12.276;2022-10-16T13:14:32;4.35;;;1.60;;
48993;SDS011;34804;49.214;12.276;2022-10-16T13:22:48;4.63;;;1.60;;
48993;SDS011;34804;49.214;12.276;2022-10-16T13:25:50;6.65;;;1.75;;
48993;SDS011;34804;49.214;12.276;2022-10-16T13:28:29;4.47;;;1.50;;
48993;SDS011;34804;49.214;12.276;2022-10-16T13:30:59;5.72;;;1.60;;
48993;SDS011;34804;49.214;12.276;2022-10-16T13:36:00;4.30;;;1.63;;
48993;SDS011;34804;49.214;12.276;2022-10-16T13:38:29;4.22;;;1.50;;
48993;SDS011;34804;49.214;12.276;2022-10-16T13:41:01;4.18;;;1.63;;
48993;SDS011;34804;49.214;12.276;2022-10-16T13:43:37;5.63;;;1.50;;
48993;SDS011;34804;49.214;12.276;2022-10-16T13:46:23;4.95;;;1.60;;
48993;SDS011;34804;49.214;12.276;2022-10-16T13:49:01;6.10;;;1.60;;
48993;SDS011;34804;49.214;12.276;2022-10-16T13:51:30;5.60;;;1.77;;
48993;SDS011;34804;49.214;12.276;2022-10-16T13:53:58;3.30;;;1.63;;
48993;SDS011;34804;49.214;12.276;2022-10-16T13:56:26;3.20;;;1.67;;
48993;SDS011;34804;49.214;12.276;2022-10-16T13:59:05;3.25;;;1.50;;
48993;SDS011;34804;49.214;12.276;2022-10-16T14:01:48;4.72;;;1.65;;
48993;SDS011;34804;49.214;12.276;2022-10-16T14:04:17;3.85;;;1.60;;
48993;SDS011;34804;49.214;12.276;2022-10-16T14:06:46;5.80;;;1.50;;
48993;SDS011;34804;49.214;12.276;2022-10-16T14:09:22;7.30;;;1.60;;
48993;SDS011;34804;49.214;12.276;2022-10-16T14:11:53;3.05;;;1.52;;
48993;SDS011;34804;49.214;12.276;2022-10-16T14:14:23;4.07;;;1.70;;
48993;SDS011;34804;49.214;12.276;2022-10-16T14:16:53;4.50;;;1.35;;
48993;SDS011;34804;49.214;12.276;2022-10-16T14:19:24;3.63;;;1.45;;
48993;SDS011;34804;49.214;12.276;2022-10-16T14:21:53;4.03;;;1.73;;
48993;SDS011;34804;49.214;12.276;2022-10-16T14:26:56;2.97;;;1.23;;
48993;SDS011;34804;49.214;12.276;2022-10-16T14:29:24;5.65;;;1.77;;
48993;SDS011;34804;49.214;12.276;2022-10-16T14:31:54;3.63;;;1.70;;
48993;SDS011;34804;49.214;12.276;2022-10-16T14:34:34;4.97;;;1.70;;
48993;SDS011;34804;49.214;12.276;2022-10-16T14:37:36;4.63;;;1.50;;
48993;SDS011;34804;49.214;12.276;2022-10-16T14:39:56;12.27;;;1.80;;
48993;SDS011;34804;49.214;12.276;2022-10-16T14:42:24;4.10;;;1.58;;
48993;SDS011;34804;49.214;12.276;2022-10-16T14:44:52;3.40;;;1.50;;
48993;SDS011;34804;49.214;12.276;2022-10-16T14:47:24;8.93;;;1.70;;
48993;SDS011;34804;49.214;12.276;2022-10-16T14:49:53;3.78;;;1.52;;
48993;SDS011;34804;49.214;12.276;2022-10-16T14:52:22;4.72;;;1.90;;
48993;SDS011;34804;49.214;12.276;2022-10-16T14:54:49;3.40;;;1.63;;
48993;SDS011;34804;49.214;12.276;2022-10-16T14:57:20;4.25;;;1.80;;
48993;SDS011;34804;49.214;12.276;2022-10-16T14:59:50;3.63;;;1.60;;
48993;SDS011;34804;49.214;12.276;2022-10-16T15:04:47;2.97;;;1.48;;
48993;SDS011;34804;49.214;12.276;2022-10-16T15:07:14;5.22;;;1.60;;
48993;SDS011;34804;49.214;12.276;2022-10-16T15:09:41;7.88;;;1.88;;
48993;SDS011;34804;49.214;12.276;2022-10-16T15:12:14;3.90;;;1.55;;
48993;SDS011;34804;49.214;12.276;2022-10-16T15:14:42;8.77;;;2.30;;
48993;SDS011;34804;49.214;12.276;2022-10-16T15:17:10;3.90;;;1.92;;
48993;SDS011;34804;49.214;12.276;2022-10-16T15:19:37;4.45;;;1.60;;
48993;SDS011;34804;49.214;12.276;2022-10-16T15:22:04;4.15;;;1.52;;
48993;SDS011;34804;49.214;12.276;2022-10-16T15:24:31;4.10;;;1.50;;
48993;SDS011;34804;49.214;12.276;2022-10-16T15:26:57;5.65;;;1.50;;
48993;SDS011;34804;49.214;12.276;2022-10-16T15:29:24;8.73;;;1.90;;
48993;SDS011;34804;49.214;12.276;2022-10-16T15:31:51;4.55;;;1.50;;
48993;SDS011;34804;49.214;12.276;2022-10-16T15:34:18;4.72;;;1.70;;
48993;SDS011;34804;49.214;12.276;2022-10-16T15:36:45;5.05;;;1.70;;
48993;SDS011;34804;49.214;12.276;2022-10-16T15:39:13;5.25;;;1.80;;
48993;SDS011;34804;49.214;12.276;2022-10-16T15:41:42;4.55;;;1.67;;
48993;SDS011;34804;49.214;12.276;2022-10-16T15:44:09;5.20;;;1.90;;
48993;SDS011;34804;49.214;12.276;2022-10-16T15:46:36;6.05;;;1.70;;
48993;SDS011;34804;49.214;12.276;2022-10-16T15:49:03;6.03;;;1.80;;
48993;SDS011;34804;49.214;12.276;2022-10-16T15:51:30;8.43;;;2.08;;
48993;SDS011;34804;49.214;12.276;2022-10-16T15:53:59;6.55;;;2.20;;
48993;SDS011;34804;49.214;12.276;2022-10-16T15:56:28;8.50;;;2.20;;
48993;SDS011;34804;49.214;12.276;2022-10-16T15:58:55;7.53;;;2.00;;
48993;SDS011;34804;49.214;12.276;2022-10-16T16:01:24;9.50;;;2.45;;
48993;SDS011;34804;49.214;12.276;2022-10-16T16:03:52;6.72;;;2.28;;
48993;SDS011;34804;49.214;12.276;2022-10-16T16:06:20;5.47;;;2.22;;
48993;SDS011;34804;49.214;12.276;2022-10-16T16:08:49;9.57;;;2.40;;
48993;SDS011;34804;49.214;12.276;2022-10-16T16:11:17;4.75;;;2.47;;
48993;SDS011;34804;49.214;12.276;2022-10-16T16:13:45;6.97;;;2.70;;
48993;SDS011;34804;49.214;12.276;2022-10-16T16:16:13;6.10;;;2.33;;
48993;SDS011;34804;49.214;12.276;2022-10-16T16:18:41;7.40;;;2.58;;
48993;SDS011;34804;49.214;12.276;2022-10-16T16:21:09;9.77;;;2.90;;
48993;SDS011;34804;49.214;12.276;2022-10-16T16:23:37;7.32;;;2.75;;
48993;SDS011;34804;49.214;12.276;2022-10-16T16:26:10;9.88;;;2.30;;
48993;SDS011;34804;49.214;12.276;2022-10-16T16:28:39;7.70;;;2.42;;
48993;SDS011;34804;49.214;12.276;2022-10-16T16:31:08;10.07;;;2.55;;
48993;SDS011;34804;49.214;12.276;2022-10-16T16:33:35;6.75;;;2.50;;
48993;SDS011;34804;49.214;12.276;2022-10-16T16:36:03;7.10;;;2.78;;
48993;SDS011;34804;49.214;12.276;2022-10-16T16:38:44;8.55;;;3.20;;
48993;SDS011;34804;49.214;12.276;2022-10-16T16:41:12;7.82;;;3.05;;
48993;SDS011;34804;49.214;12.276;2022-10-16T16:43:44;8.02;;;2.42;;